sensor_id;sensor_type;location;lat;lon;timestamp;pressure;altitude;pressure_sealevel;temperature;humidity
11525;BME280;5819;49.648;8.330;2023-04-06T00:00:07;100775.00;;;3.05;72.75
11525;BME280;5819;49.648;8.330;2023-04-06T00:02:36;100780.13;;;3.02;72.86
11525;BME280;5819;49.648;8.330;2023-04-06T00:05:05;100767.22;;;3.14;72.47
11525;BME280;5819;49.648;8.330;2023-04-06T00:07:33;100760.34;;;3.20;73.02
11525;BME280;5819;49.648;8.330;2023-04-06T00:10:03;100758.56;;;3.25;72.52
11525;BME280;5819;49.648;8.330;2023-04-06T00:12:33;100754.31;;;3.21;72.30
11525;BME280;5819;49.648;8.330;2023-04-06T00:15:01;100756.06;;;3.19;72.95
11525;BME280;5819;49.648;8.330;2023-04-06T00:17:31;100749.25;;;3.09;73.48
11525;BME280;5819;49.648;8.330;2023-04-06T00:19:59;100745.88;;;3.00;74.18
11525;BME280;5819;49.648;8.330;2023-04-06T00:22:27;100747.66;;;2.86;75.21
11525;BME280;5819;49.648;8.330;2023-04-06T00:24:56;100742.56;;;2.78;75.72
11525;BME280;5819;49.648;8.330;2023-04-06T00:27:24;100745.09;;;2.86;75.16
11525;BME280;5819;49.648;8.330;2023-04-06T00:29:53;100749.38;;;2.85;75.44
11525;BME280;5819;49.648;8.330;2023-04-06T00:32:21;100747.75;;;2.67;74.94
11525;BME280;5819;49.648;8.330;2023-04-06T00:34:49;100764.03;;;2.57;74.99
11525;BME280;5819;49.648;8.330;2023-04-06T00:37:18;100763.22;;;2.52;75.17
11525;BME280;5819;49.648;8.330;2023-04-06T00:39:46;100759.81;;;2.46;74.50
11525;BME280;5819;49.648;8.330;2023-04-06T00:42:14;100761.53;;;2.44;75.06
11525;BME280;5819;49.648;8.330;2023-04-06T00:44:42;100757.28;;;2.37;75.84
11525;BME280;5819;49.648;8.330;2023-04-06T00:47:12;100756.41;;;2.41;76.00
11525;BME280;5819;49.648;8.330;2023-04-06T00:49:41;100748.72;;;2.34;76.83
11525;BME280;5819;49.648;8.330;2023-04-06T00:52:09;100742.75;;;2.28;77.49
11525;BME280;5819;49.648;8.330;2023-04-06T00:54:37;100736.78;;;2.27;77.81
11525;BME280;5819;49.648;8.330;2023-04-06T00:57:07;100735.91;;;2.27;77.43
11525;BME280;5819;49.648;8.330;2023-04-06T00:59:35;100739.34;;;2.18;77.25
11525;BME280;5819;49.648;8.330;2023-04-06T01:02:04;100737.63;;;2.14;77.95
11525;BME280;5819;49.648;8.330;2023-04-06T01:04:40;100734.19;;;2.17;78.21
11525;BME280;5819;49.648;8.330;2023-04-06T01:07:15;100730.78;;;2.25;77.74
11525;BME280;5819;49.648;8.330;2023-04-06T01:09:57;100735.06;;;2.28;76.77
11525;BME280;5819;49.648;8.330;2023-04-06T01:12:28;100731.59;;;2.29;76.78
11525;BME280;5819;49.648;8.330;2023-04-06T01:14:58;100739.31;;;2.26;77.10
11525;BME280;5819;49.648;8.330;2023-04-06T01:17:28;100723.97;;;2.12;77.40
11525;BME280;5819;49.648;8.330;2023-04-06T01:20:07;100725.66;;;2.09;76.67
11525;BME280;5819;49.648;8.330;2023-04-06T01:22:38;100727.41;;;2.02;77.36
11525;BME280;5819;49.648;8.330;2023-04-06T01:25:08;100727.41;;;1.98;77.95
11525;BME280;5819;49.648;8.330;2023-04-06T01:27:46;100727.44;;;1.92;77.06
11525;BME280;5819;49.648;8.330;2023-04-06T01:30:23;100728.28;;;1.83;77.48
11525;BME280;5819;49.648;8.330;2023-04-06T01:32:55;100726.59;;;1.80;78.24
11525;BME280;5819;49.648;8.330;2023-04-06T01:35:34;100717.19;;;1.87;79.07
11525;BME280;5819;49.648;8.330;2023-04-06T01:38:17;100723.16;;;1.84;79.17
11525;BME280;5819;49.648;8.330;2023-04-06T01:40:47;100709.47;;;1.87;78.66
11525;BME280;5819;49.648;8.330;2023-04-06T01:43:18;100718.88;;;1.86;78.74
11525;BME280;5819;49.648;8.330;2023-04-06T01:46:01;100718.03;;;1.81;78.79
11525;BME280;5819;49.648;8.330;2023-04-06T01:48:33;100712.91;;;1.81;78.87
11525;BME280;5819;49.648;8.330;2023-04-06T01:51:12;100708.66;;;1.80;78.45
11525;BME280;5819;49.648;8.330;2023-04-06T01:53:53;100710.34;;;1.75;78.39
11525;BME280;5819;49.648;8.330;2023-04-06T01:56:28;100709.50;;;1.75;77.59
11525;BME280;5819;49.648;8.330;2023-04-06T01:59:08;100720.63;;;1.72;77.77
11525;BME280;5819;49.648;8.330;2023-04-06T02:01:40;100720.59;;;1.78;77.52
11525;BME280;5819;49.648;8.330;2023-04-06T02:04:08;100712.94;;;1.68;77.08
11525;BME280;5819;49.648;8.330;2023-04-06T02:06:37;100712.94;;;1.72;77.41
11525;BME280;5819;49.648;8.330;2023-04-06T02:09:08;100704.38;;;1.70;77.32
11525;BME280;5819;49.648;8.330;2023-04-06T02:11:36;100706.94;;;1.63;77.39
11525;BME280;5819;49.648;8.330;2023-04-06T02:14:05;100712.06;;;1.58;78.01
11525;BME280;5819;49.648;8.330;2023-04-06T02:16:40;100717.19;;;1.60;77.74
11525;BME280;5819;49.648;8.330;2023-04-06T02:19:09;100712.94;;;1.63;77.84
11525;BME280;5819;49.648;8.330;2023-04-06T02:21:37;100712.06;;;1.57;77.38
11525;BME280;5819;49.648;8.330;2023-04-06T02:24:06;100713.78;;;1.50;77.45
11525;BME280;5819;49.648;8.330;2023-04-06T02:26:35;100709.50;;;1.37;77.10
11525;BME280;5819;49.648;8.330;2023-04-06T02:29:03;100718.03;;;1.34;76.85
11525;BME280;5819;49.648;8.330;2023-04-06T02:31:32;100716.31;;;1.33;77.72
11525;BME280;5819;49.648;8.330;2023-04-06T02:34:01;100709.50;;;1.31;78.29
11525;BME280;5819;49.648;8.330;2023-04-06T02:36:31;100708.63;;;1.29;78.43
11525;BME280;5819;49.648;8.330;2023-04-06T02:38:59;100711.19;;;1.30;78.23
11525;BME280;5819;49.648;8.330;2023-04-06T02:41:27;100700.09;;;1.45;78.11
11525;BME280;5819;49.648;8.330;2023-04-06T02:43:58;100703.53;;;1.55;77.61
11525;BME280;5819;49.648;8.330;2023-04-06T02:46:52;100699.25;;;1.60;77.12
11525;BME280;5819;49.648;8.330;2023-04-06T02:49:22;100707.78;;;1.71;75.57
11525;BME280;5819;49.648;8.330;2023-04-06T02:51:54;100704.38;;;1.84;74.56
11525;BME280;5819;49.648;8.330;2023-04-06T02:54:26;100696.66;;;1.85;75.12
11525;BME280;5819;49.648;8.330;2023-04-06T02:56:54;100695.78;;;1.96;73.53
11525;BME280;5819;49.648;8.330;2023-04-06T02:59:31;100700.94;;;1.93;73.52
11525;BME280;5819;49.648;8.330;2023-04-06T03:02:06;100694.91;;;1.97;74.28
11525;BME280;5819;49.648;8.330;2023-04-06T03:04:35;100698.34;;;1.94;73.76
11525;BME280;5819;49.648;8.330;2023-04-06T03:07:06;100697.50;;;1.87;74.06
11525;BME280;5819;49.648;8.330;2023-04-06T03:09:37;100694.09;;;1.69;75.60
11525;BME280;5819;49.648;8.330;2023-04-06T03:12:06;100689.88;;;1.48;76.87
11525;BME280;5819;49.648;8.330;2023-04-06T03:14:55;100695.81;;;1.26;78.98
11525;BME280;5819;49.648;8.330;2023-04-06T03:17:24;100698.31;;;0.92;80.21
11525;BME280;5819;49.648;8.330;2023-04-06T03:19:58;100701.72;;;0.85;80.91
11525;BME280;5819;49.648;8.330;2023-04-06T03:22:29;100699.16;;;0.88;80.92
11525;BME280;5819;49.648;8.330;2023-04-06T03:24:57;100696.59;;;0.85;81.14
11525;BME280;5819;49.648;8.330;2023-04-06T03:27:30;100696.63;;;0.98;80.02
11525;BME280;5819;49.648;8.330;2023-04-06T03:30:00;100700.97;;;1.20;77.92
11525;BME280;5819;49.648;8.330;2023-04-06T03:32:33;100696.69;;;1.28;76.94
11525;BME280;5819;49.648;8.330;2023-04-06T03:35:01;100696.66;;;1.25;77.03
11525;BME280;5819;49.648;8.330;2023-04-06T03:37:30;100701.81;;;1.19;77.23
11525;BME280;5819;49.648;8.330;2023-04-06T03:40:02;100702.63;;;1.00;77.73
11525;BME280;5819;49.648;8.330;2023-04-06T03:42:30;100703.47;;;1.02;78.66
11525;BME280;5819;49.648;8.330;2023-04-06T03:45:07;100705.22;;;1.25;77.26
11525;BME280;5819;49.648;8.330;2023-04-06T03:47:41;100706.09;;;1.42;75.96
11525;BME280;5819;49.648;8.330;2023-04-06T03:50:10;100708.63;;;1.41;76.17
11525;BME280;5819;49.648;8.330;2023-04-06T03:52:38;100710.38;;;1.48;74.64
11525;BME280;5819;49.648;8.330;2023-04-06T03:55:08;100709.50;;;1.55;75.16
11525;BME280;5819;49.648;8.330;2023-04-06T03:57:36;100711.19;;;1.49;75.19
11525;BME280;5819;49.648;8.330;2023-04-06T04:00:07;100712.94;;;1.44;75.59
11525;BME280;5819;49.648;8.330;2023-04-06T04:02:38;100718.06;;;1.47;75.16
11525;BME280;5819;49.648;8.330;2023-04-06T04:05:08;100710.34;;;1.37;75.33
11525;BME280;5819;49.648;8.330;2023-04-06T04:07:36;100719.75;;;1.40;76.24
11525;BME280;5819;49.648;8.330;2023-04-06T04:10:06;100719.75;;;1.34;75.33
11525;BME280;5819;49.648;8.330;2023-04-06T04:12:34;100722.31;;;1.35;76.15
11525;BME280;5819;49.648;8.330;2023-04-06T04:15:03;100724.88;;;1.40;75.45
11525;BME280;5819;49.648;8.330;2023-04-06T04:17:32;100730.84;;;1.37;76.57
11525;BME280;5819;49.648;8.330;2023-04-06T04:20:00;100729.16;;;1.35;76.30
11525;BME280;5819;49.648;8.330;2023-04-06T04:22:28;100732.53;;;1.29;75.94
11525;BME280;5819;49.648;8.330;2023-04-06T04:24:56;100734.25;;;1.33;76.09
11525;BME280;5819;49.648;8.330;2023-04-06T04:27:25;100732.56;;;1.23;76.59
11525;BME280;5819;49.648;8.330;2023-04-06T04:29:53;100729.97;;;1.14;77.69
11525;BME280;5819;49.648;8.330;2023-04-06T04:32:22;100742.72;;;0.93;78.92
11525;BME280;5819;49.648;8.330;2023-04-06T04:34:56;100741.00;;;0.80;79.96
11525;BME280;5819;49.648;8.330;2023-04-06T04:37:36;100734.19;;;0.89;79.43
11525;BME280;5819;49.648;8.330;2023-04-06T04:40:06;100732.50;;;1.02;78.99
11525;BME280;5819;49.648;8.330;2023-04-06T04:42:44;100737.63;;;0.99;78.30
11525;BME280;5819;49.648;8.330;2023-04-06T04:45:19;100743.56;;;0.93;79.02
11525;BME280;5819;49.648;8.330;2023-04-06T04:47:47;100745.28;;;0.90;78.24
11525;BME280;5819;49.648;8.330;2023-04-06T04:50:18;100745.28;;;0.94;77.90
11525;BME280;5819;49.648;8.330;2023-04-06T04:52:50;100742.72;;;0.93;78.87
11525;BME280;5819;49.648;8.330;2023-04-06T04:55:24;100740.16;;;0.90;78.00
11525;BME280;5819;49.648;8.330;2023-04-06T04:57:55;100745.28;;;0.84;78.92
11525;BME280;5819;49.648;8.330;2023-04-06T05:00:50;100746.97;;;0.92;79.39
11525;BME280;5819;49.648;8.330;2023-04-06T05:03:21;100739.28;;;0.92;79.02
11525;BME280;5819;49.648;8.330;2023-04-06T05:05:59;100746.13;;;0.93;78.57
11525;BME280;5819;49.648;8.330;2023-04-06T05:08:31;100752.97;;;0.94;79.17
11525;BME280;5819;49.648;8.330;2023-04-06T05:11:00;100747.84;;;0.93;78.88
11525;BME280;5819;49.648;8.330;2023-04-06T05:13:33;100746.13;;;0.97;79.07
11525;BME280;5819;49.648;8.330;2023-04-06T05:16:07;100744.44;;;0.96;80.19
11525;BME280;5819;49.648;8.330;2023-04-06T05:18:37;100751.28;;;0.98;79.91
11525;BME280;5819;49.648;8.330;2023-04-06T05:21:09;100743.59;;;0.95;80.27
11525;BME280;5819;49.648;8.330;2023-04-06T05:24:00;100746.16;;;0.98;79.96
11525;BME280;5819;49.648;8.330;2023-04-06T05:26:30;100742.75;;;1.05;80.05
11525;BME280;5819;49.648;8.330;2023-04-06T05:29:04;100746.16;;;1.09;80.84
11525;BME280;5819;49.648;8.330;2023-04-06T05:31:36;100747.06;;;1.15;81.46
11525;BME280;5819;49.648;8.330;2023-04-06T05:34:04;100753.03;;;1.16;80.20
11525;BME280;5819;49.648;8.330;2023-04-06T05:36:37;100752.19;;;1.20;80.58
11525;BME280;5819;49.648;8.330;2023-04-06T05:39:14;100755.59;;;1.22;80.35
11525;BME280;5819;49.648;8.330;2023-04-06T05:41:45;100752.22;;;1.39;80.17
11525;BME280;5819;49.648;8.330;2023-04-06T05:44:14;100755.66;;;1.52;80.93
11525;BME280;5819;49.648;8.330;2023-04-06T05:46:47;100753.94;;;1.69;79.52
11525;BME280;5819;49.648;8.330;2023-04-06T05:49:16;100757.38;;;1.80;78.95
11525;BME280;5819;49.648;8.330;2023-04-06T05:51:45;100759.94;;;1.80;79.32
11525;BME280;5819;49.648;8.330;2023-04-06T05:54:13;100752.25;;;1.80;79.47
11525;BME280;5819;49.648;8.330;2023-04-06T05:56:42;100760.78;;;1.79;80.51
11525;BME280;5819;49.648;8.330;2023-04-06T05:59:11;100762.50;;;1.93;79.28
11525;BME280;5819;49.648;8.330;2023-04-06T06:01:40;100765.91;;;1.88;80.03
11525;BME280;5819;49.648;8.330;2023-04-06T06:04:08;100756.47;;;1.89;79.76
11525;BME280;5819;49.648;8.330;2023-04-06T06:06:38;100753.09;;;1.70;80.88
11525;BME280;5819;49.648;8.330;2023-04-06T06:09:15;100755.63;;;1.85;80.66
11525;BME280;5819;49.648;8.330;2023-04-06T06:11:52;100763.34;;;1.88;81.50
11525;BME280;5819;49.648;8.330;2023-04-06T06:14:24;100760.78;;;1.87;81.24
11525;BME280;5819;49.648;8.330;2023-04-06T06:16:55;100762.47;;;2.06;81.23
11525;BME280;5819;49.648;8.330;2023-04-06T06:19:23;100754.75;;;2.15;81.58
11525;BME280;5819;49.648;8.330;2023-04-06T06:21:55;100748.75;;;2.24;81.50
11525;BME280;5819;49.648;8.330;2023-04-06T06:24:25;100747.84;;;2.39;81.55
11525;BME280;5819;49.648;8.330;2023-04-06T06:26:58;100758.09;;;2.46;82.04
11525;BME280;5819;49.648;8.330;2023-04-06T06:29:29;100748.63;;;2.59;81.73
11525;BME280;5819;49.648;8.330;2023-04-06T06:31:59;100746.88;;;2.65;81.64
11525;BME280;5819;49.648;8.330;2023-04-06T06:34:27;100752.91;;;2.64;81.30
11525;BME280;5819;49.648;8.330;2023-04-06T06:36:58;100747.72;;;2.76;81.44
11525;BME280;5819;49.648;8.330;2023-04-06T06:39:27;100742.50;;;2.92;81.98
11525;BME280;5819;49.648;8.330;2023-04-06T06:41:56;100738.16;;;3.03;80.46
11525;BME280;5819;49.648;8.330;2023-04-06T06:44:44;100744.06;;;3.18;79.60
11525;BME280;5819;49.648;8.330;2023-04-06T06:47:12;100746.53;;;3.35;79.18
11525;BME280;5819;49.648;8.330;2023-04-06T06:49:40;100747.28;;;3.46;79.20
11525;BME280;5819;49.648;8.330;2023-04-06T06:52:08;100744.59;;;3.61;79.51
11525;BME280;5819;49.648;8.330;2023-04-06T06:54:38;100744.25;;;4.02;77.96
11525;BME280;5819;49.648;8.330;2023-04-06T06:57:07;100741.69;;;4.04;77.73
11525;BME280;5819;49.648;8.330;2023-04-06T06:59:35;100737.94;;;4.32;77.12
11525;BME280;5819;49.648;8.330;2023-04-06T07:02:03;100743.91;;;4.36;76.94
11525;BME280;5819;49.648;8.330;2023-04-06T07:04:31;100730.47;;;4.83;76.20
11525;BME280;5819;49.648;8.330;2023-04-06T07:07:00;100736.19;;;5.04;75.12
11525;BME280;5819;49.648;8.330;2023-04-06T07:09:30;100733.22;;;5.33;74.43
11525;BME280;5819;49.648;8.330;2023-04-06T07:12:01;100741.00;;;5.29;74.14
11525;BME280;5819;49.648;8.330;2023-04-06T07:14:31;100726.91;;;5.51;74.17
11525;BME280;5819;49.648;8.330;2023-04-06T07:17:00;100732.84;;;5.54;74.40
11525;BME280;5819;49.648;8.330;2023-04-06T07:19:28;100733.38;;;5.78;73.09
11525;BME280;5819;49.648;8.330;2023-04-06T07:21:56;100737.94;;;6.13;71.92
11525;BME280;5819;49.648;8.330;2023-04-06T07:24:25;100732.88;;;6.52;71.78
11525;BME280;5819;49.648;8.330;2023-04-06T07:26:54;100729.63;;;6.84;69.97
11525;BME280;5819;49.648;8.330;2023-04-06T07:29:24;100719.09;;;8.01;66.46
11525;BME280;5819;49.648;8.330;2023-04-06T07:31:53;100712.25;;;8.31;64.15
11525;BME280;5819;49.648;8.330;2023-04-06T07:34:23;100709.19;;;8.15;63.67
11525;BME280;5819;49.648;8.330;2023-04-06T07:36:55;100707.97;;;8.30;65.01
11525;BME280;5819;49.648;8.330;2023-04-06T07:39:28;100710.03;;;8.16;64.92
11525;BME280;5819;49.648;8.330;2023-04-06T07:41:57;100709.19;;;8.15;65.09
11525;BME280;5819;49.648;8.330;2023-04-06T07:44:28;100702.94;;;8.55;63.83
11525;BME280;5819;49.648;8.330;2023-04-06T07:46:56;100711.72;;;8.80;63.35
11525;BME280;5819;49.648;8.330;2023-04-06T07:49:25;100703.88;;;8.21;63.66
11525;BME280;5819;49.648;8.330;2023-04-06T07:51:54;100708.97;;;7.90;64.78
11525;BME280;5819;49.648;8.330;2023-04-06T07:54:22;100703.13;;;8.49;64.49
11525;BME280;5819;49.648;8.330;2023-04-06T07:56:50;100698.75;;;9.35;61.08
11525;BME280;5819;49.648;8.330;2023-04-06T07:59:18;100697.72;;;9.67;60.13
11525;BME280;5819;49.648;8.330;2023-04-06T08:01:49;100691.38;;;9.76;59.20
11525;BME280;5819;49.648;8.330;2023-04-06T08:04:22;100696.66;;;9.73;59.13
11525;BME280;5819;49.648;8.330;2023-04-06T08:06:50;100696.69;;;9.47;59.78
11525;BME280;5819;49.648;8.330;2023-04-06T08:09:18;100698.50;;;9.43;59.10
11525;BME280;5819;49.648;8.330;2023-04-06T08:11:46;100693.38;;;9.68;58.99
11525;BME280;5819;49.648;8.330;2023-04-06T08:14:15;100691.50;;;9.71;59.82
11525;BME280;5819;49.648;8.330;2023-04-06T08:16:43;100689.31;;;9.85;56.93
11525;BME280;5819;49.648;8.330;2023-04-06T08:19:13;100694.03;;;9.99;55.59
11525;BME280;5819;49.648;8.330;2023-04-06T08:21:43;100690.50;;;10.02;56.49
11525;BME280;5819;49.648;8.330;2023-04-06T08:24:13;100691.50;;;9.98;57.22
11525;BME280;5819;49.648;8.330;2023-04-06T08:26:41;100690.75;;;9.94;57.62
11525;BME280;5819;49.648;8.330;2023-04-06T08:29:10;100696.66;;;9.73;57.87
11525;BME280;5819;49.648;8.330;2023-04-06T08:31:41;100694.06;;;9.73;57.05
11525;BME280;5819;49.648;8.330;2023-04-06T08:34:16;100707.09;;;9.71;56.48
11525;BME280;5819;49.648;8.330;2023-04-06T08:36:44;100700.16;;;9.72;56.51
11525;BME280;5819;49.648;8.330;2023-04-06T08:39:14;100699.00;;;9.80;56.62
11525;BME280;5819;49.648;8.330;2023-04-06T08:41:42;100695.72;;;10.00;54.63
11525;BME280;5819;49.648;8.330;2023-04-06T08:44:11;100691.53;;;9.96;54.40
11525;BME280;5819;49.648;8.330;2023-04-06T08:46:40;100694.06;;;9.73;54.50
11525;BME280;5819;49.648;8.330;2023-04-06T08:49:09;100687.78;;;10.05;54.89
11525;BME280;5819;49.648;8.330;2023-04-06T08:51:39;100688.00;;;9.99;55.53
11525;BME280;5819;49.648;8.330;2023-04-06T08:54:10;100683.75;;;10.46;55.10
11525;BME280;5819;49.648;8.330;2023-04-06T08:56:39;100691.28;;;10.28;55.00
11525;BME280;5819;49.648;8.330;2023-04-06T08:59:09;100692.69;;;10.12;55.53
11525;BME280;5819;49.648;8.330;2023-04-06T09:01:39;100685.66;;;10.41;55.54
11525;BME280;5819;49.648;8.330;2023-04-06T09:04:12;100684.03;;;10.38;55.13
11525;BME280;5819;49.648;8.330;2023-04-06T09:06:44;100680.44;;;10.41;56.16
11525;BME280;5819;49.648;8.330;2023-04-06T09:09:12;100680.88;;;10.28;57.44
11525;BME280;5819;49.648;8.330;2023-04-06T09:11:43;100686.00;;;10.07;55.59
11525;BME280;5819;49.648;8.330;2023-04-06T09:14:12;100681.63;;;10.32;56.89
11525;BME280;5819;49.648;8.330;2023-04-06T09:16:41;100672.06;;;10.32;56.71
11525;BME280;5819;49.648;8.330;2023-04-06T09:19:09;100674.56;;;10.36;56.40
11525;BME280;5819;49.648;8.330;2023-04-06T09:21:39;100673.63;;;10.61;55.31
11525;BME280;5819;49.648;8.330;2023-04-06T09:24:10;100667.69;;;10.58;55.30
11525;BME280;5819;49.648;8.330;2023-04-06T09:26:46;100669.66;;;10.74;56.34
11525;BME280;5819;49.648;8.330;2023-04-06T09:29:24;100666.28;;;10.94;55.92
11525;BME280;5819;49.648;8.330;2023-04-06T09:32:02;100669.50;;;11.22;54.28
11525;BME280;5819;49.648;8.330;2023-04-06T09:34:32;100666.63;;;11.28;52.73
11525;BME280;5819;49.648;8.330;2023-04-06T09:37:11;100655.91;;;11.36;54.95
11525;BME280;5819;49.648;8.330;2023-04-06T09:39:44;100645.31;;;11.61;53.87
11525;BME280;5819;49.648;8.330;2023-04-06T09:42:23;100648.53;;;11.88;53.17
11525;BME280;5819;49.648;8.330;2023-04-06T09:44:52;100653.13;;;11.83;53.34
11525;BME280;5819;49.648;8.330;2023-04-06T09:47:22;100645.91;;;11.67;53.37
11525;BME280;5819;49.648;8.330;2023-04-06T09:49:56;100646.59;;;11.93;52.71
11525;BME280;5819;49.648;8.330;2023-04-06T09:52:27;100647.91;;;12.03;51.81
11525;BME280;5819;49.648;8.330;2023-04-06T09:55:01;100637.53;;;12.01;52.76
11525;BME280;5819;49.648;8.330;2023-04-06T09:57:32;100640.66;;;12.09;52.02
11525;BME280;5819;49.648;8.330;2023-04-06T10:00:07;100634.78;;;12.43;51.58
11525;BME280;5819;49.648;8.330;2023-04-06T10:02:47;100637.72;;;12.73;51.66
11525;BME280;5819;49.648;8.330;2023-04-06T10:05:25;100629.28;;;12.49;50.05
11525;BME280;5819;49.648;8.330;2023-04-06T10:08:02;100626.06;;;12.80;49.99
11525;BME280;5819;49.648;8.330;2023-04-06T10:10:34;100634.03;;;12.96;51.26
11525;BME280;5819;49.648;8.330;2023-04-06T10:13:03;100627.28;;;13.10;50.50
11525;BME280;5819;49.648;8.330;2023-04-06T10:15:33;100619.09;;;12.99;49.28
11525;BME280;5819;49.648;8.330;2023-04-06T10:18:03;100619.00;;;13.20;49.14
11525;BME280;5819;49.648;8.330;2023-04-06T10:20:37;100615.25;;;13.06;50.12
11525;BME280;5819;49.648;8.330;2023-04-06T10:23:11;100617.94;;;13.24;49.64
11525;BME280;5819;49.648;8.330;2023-04-06T10:25:53;100602.53;;;13.18;50.39
11525;BME280;5819;49.648;8.330;2023-04-06T10:28:22;100609.63;;;13.16;49.20
11525;BME280;5819;49.648;8.330;2023-04-06T10:30:57;100605.09;;;13.36;48.56
11525;BME280;5819;49.648;8.330;2023-04-06T10:33:31;100596.34;;;13.01;47.96
11525;BME280;5819;49.648;8.330;2023-04-06T10:36:10;100604.50;;;12.77;48.96
11525;BME280;5819;49.648;8.330;2023-04-06T10:38:39;100600.94;;;12.96;49.72
11525;BME280;5819;49.648;8.330;2023-04-06T10:41:11;100599.81;;;13.02;49.88
11525;BME280;5819;49.648;8.330;2023-04-06T10:43:41;100591.66;;;13.27;49.74
11525;BME280;5819;49.648;8.330;2023-04-06T10:46:10;100589.25;;;13.22;48.96
11525;BME280;5819;49.648;8.330;2023-04-06T10:48:40;100584.63;;;13.44;46.74
11525;BME280;5819;49.648;8.330;2023-04-06T10:51:10;100578.88;;;13.38;47.27
11525;BME280;5819;49.648;8.330;2023-04-06T10:53:41;100580.03;;;13.49;46.73
11525;BME280;5819;49.648;8.330;2023-04-06T10:56:14;100572.75;;;13.22;45.40
11525;BME280;5819;49.648;8.330;2023-04-06T10:58:46;100567.06;;;13.31;46.66
11525;BME280;5819;49.648;8.330;2023-04-06T11:01:17;100562.66;;;13.48;46.74
11525;BME280;5819;49.648;8.330;2023-04-06T11:03:50;100568.53;;;13.19;45.43
11525;BME280;5819;49.648;8.330;2023-04-06T11:06:20;100567.66;;;13.19;43.02
11525;BME280;5819;49.648;8.330;2023-04-06T11:08:49;100559.50;;;13.25;43.84
11525;BME280;5819;49.648;8.330;2023-04-06T11:11:28;100545.50;;;13.60;42.13
11525;BME280;5819;49.648;8.330;2023-04-06T11:13:58;100542.69;;;13.80;43.88
11525;BME280;5819;49.648;8.330;2023-04-06T11:16:30;100548.75;;;14.14;41.96
11525;BME280;5819;49.648;8.330;2023-04-06T11:18:59;100529.50;;;13.99;40.92
11525;BME280;5819;49.648;8.330;2023-04-06T11:21:35;100527.75;;;14.31;40.73
11525;BME280;5819;49.648;8.330;2023-04-06T11:24:05;100523.03;;;14.84;40.94
11525;BME280;5819;49.648;8.330;2023-04-06T11:26:39;100518.72;;;14.83;40.54
11525;BME280;5819;49.648;8.330;2023-04-06T11:29:07;100507.16;;;14.72;40.51
11525;BME280;5819;49.648;8.330;2023-04-06T11:31:42;100518.91;;;14.49;40.18
11525;BME280;5819;49.648;8.330;2023-04-06T11:34:17;100513.34;;;14.39;40.11
11525;BME280;5819;49.648;8.330;2023-04-06T11:36:48;100512.16;;;14.45;41.35
11525;BME280;5819;49.648;8.330;2023-04-06T11:39:18;100506.00;;;14.46;39.13
11525;BME280;5819;49.648;8.330;2023-04-06T11:41:49;100496.88;;;14.53;40.19
11525;BME280;5819;49.648;8.330;2023-04-06T11:44:29;100498.75;;;14.35;39.96
11525;BME280;5819;49.648;8.330;2023-04-06T11:47:00;100493.91;;;14.59;40.59
11525;BME280;5819;49.648;8.330;2023-04-06T11:49:32;100484.84;;;14.65;39.82
11525;BME280;5819;49.648;8.330;2023-04-06T11:52:02;100492.19;;;14.74;40.29
11525;BME280;5819;49.648;8.330;2023-04-06T11:54:32;100489.13;;;14.51;40.51
11525;BME280;5819;49.648;8.330;2023-04-06T11:57:03;100490.03;;;14.50;39.64
11525;BME280;5819;49.648;8.330;2023-04-06T11:59:32;100484.44;;;14.25;40.63
11525;BME280;5819;49.648;8.330;2023-04-06T12:02:01;100478.78;;;14.33;40.83
11525;BME280;5819;49.648;8.330;2023-04-06T12:04:31;100466.31;;;14.22;39.66
11525;BME280;5819;49.648;8.330;2023-04-06T12:07:00;100466.78;;;14.29;39.56
11525;BME280;5819;49.648;8.330;2023-04-06T12:09:29;100469.84;;;14.52;38.61
11525;BME280;5819;49.648;8.330;2023-04-06T12:11:57;100475.50;;;14.14;38.46
11525;BME280;5819;49.648;8.330;2023-04-06T12:14:27;100472.28;;;14.08;38.98
11525;BME280;5819;49.648;8.330;2023-04-06T12:16:54;100476.16;;;14.33;40.46
11525;BME280;5819;49.648;8.330;2023-04-06T12:19:23;100458.47;;;14.38;38.90
11525;BME280;5819;49.648;8.330;2023-04-06T12:21:52;100462.78;;;14.84;39.28
11525;BME280;5819;49.648;8.330;2023-04-06T12:24:21;100452.44;;;15.25;39.23
11525;BME280;5819;49.648;8.330;2023-04-06T12:26:50;100458.88;;;14.91;39.79
11525;BME280;5819;49.648;8.330;2023-04-06T12:29:29;100437.72;;;15.09;37.88
11525;BME280;5819;49.648;8.330;2023-04-06T12:31:57;100451.75;;;15.52;39.01
11525;BME280;5819;49.648;8.330;2023-04-06T12:34:25;100441.53;;;15.47;39.17
11525;BME280;5819;49.648;8.330;2023-04-06T12:36:54;100442.44;;;15.18;36.92
11525;BME280;5819;49.648;8.330;2023-04-06T12:39:22;100437.31;;;14.86;39.01
11525;BME280;5819;49.648;8.330;2023-04-06T12:41:52;100441.38;;;15.06;38.81
11525;BME280;5819;49.648;8.330;2023-04-06T12:44:21;100432.13;;;15.29;37.78
11525;BME280;5819;49.648;8.330;2023-04-06T12:46:53;100440.16;;;15.56;37.78
11525;BME280;5819;49.648;8.330;2023-04-06T12:49:22;100429.53;;;15.85;37.58
11525;BME280;5819;49.648;8.330;2023-04-06T12:51:50;100428.53;;;15.60;37.58
11525;BME280;5819;49.648;8.330;2023-04-06T12:54:18;100431.00;;;15.33;38.15
11525;BME280;5819;49.648;8.330;2023-04-06T12:56:46;100432.34;;;15.26;37.93
11525;BME280;5819;49.648;8.330;2023-04-06T12:59:14;100433.47;;;15.36;38.33
11525;BME280;5819;49.648;8.330;2023-04-06T13:01:43;100436.38;;;15.31;38.09
11525;BME280;5819;49.648;8.330;2023-04-06T13:04:13;100427.94;;;15.26;38.19
11525;BME280;5819;49.648;8.330;2023-04-06T13:06:41;100424.28;;;15.43;39.51
11525;BME280;5819;49.648;8.330;2023-04-06T13:09:09;100424.66;;;15.37;38.54
11525;BME280;5819;49.648;8.330;2023-04-06T13:11:37;100413.28;;;15.52;37.96
11525;BME280;5819;49.648;8.330;2023-04-06T13:14:05;100417.53;;;15.25;37.85
11525;BME280;5819;49.648;8.330;2023-04-06T13:16:33;100405.94;;;15.43;37.82
11525;BME280;5819;49.648;8.330;2023-04-06T13:19:01;100415.44;;;15.60;38.10
11525;BME280;5819;49.648;8.330;2023-04-06T13:21:31;100418.50;;;15.24;39.37
11525;BME280;5819;49.648;8.330;2023-04-06T13:23:59;100421.47;;;15.18;37.78
11525;BME280;5819;49.648;8.330;2023-04-06T13:26:27;100420.16;;;15.11;38.24